createdAt,value
2023-11-25T00:00:35.647Z,3.51
2023-11-25T00:03:03.750Z,3.48
2023-11-25T00:05:31.677Z,3.46
2023-11-25T00:07:59.652Z,3.38
2023-11-25T00:10:27.642Z,3.41
2023-11-25T00:12:56.837Z,3.33
2023-11-25T00:15:25.131Z,3.33
2023-11-25T00:17:53.560Z,3.33
2023-11-25T00:20:21.339Z,3.26
2023-11-25T00:22:49.379Z,3.24
2023-11-25T00:25:19.739Z,3.28
2023-11-25T00:27:48.639Z,3.27
2023-11-25T00:30:17.944Z,3.27
2023-11-25T00:32:48.735Z,3.31
2023-11-25T00:35:16.509Z,3.29
2023-11-25T00:37:44.252Z,3.22
2023-11-25T00:40:12.394Z,3.19
2023-11-25T00:42:41.226Z,3.25
2023-11-25T00:45:10.877Z,3.16
2023-11-25T00:47:42.008Z,3.11
2023-11-25T00:50:11.354Z,3.19
2023-11-25T00:52:39.766Z,3.16
2023-11-25T00:55:09.797Z,3.19
2023-11-25T00:57:39.417Z,3.27
2023-11-25T01:00:11.327Z,3.30
2023-11-25T01:02:43.432Z,3.20
2023-11-25T01:05:11.848Z,3.23
2023-11-25T01:07:39.816Z,3.26
2023-11-25T01:10:08.730Z,3.26
2023-11-25T01:12:36.628Z,3.25
2023-11-25T01:15:05.471Z,3.29
2023-11-25T01:17:33.454Z,3.24
2023-11-25T01:20:02.614Z,3.22
2023-11-25T01:22:30.452Z,3.23
2023-11-25T01:24:58.462Z,3.17
2023-11-25T01:27:26.169Z,3.19
2023-11-25T01:29:54.697Z,3.19
2023-11-25T01:32:22.454Z,3.23
2023-11-25T01:34:50.198Z,3.23
2023-11-25T01:37:19.577Z,3.25
2023-11-25T01:39:48.154Z,3.13
2023-11-25T01:42:15.971Z,3.12
2023-11-25T01:44:43.928Z,3.13
2023-11-25T01:47:13.163Z,3.15
2023-11-25T01:49:42.088Z,3.13
2023-11-25T01:52:10.666Z,3.01
2023-11-25T01:54:40.125Z,3.00
2023-11-25T01:57:09.656Z,3.05
2023-11-25T01:59:37.432Z,2.99
2023-11-25T02:02:07.153Z,2.98
2023-11-25T02:04:35.184Z,3.04
2023-11-25T02:07:03.722Z,3.17
2023-11-25T02:09:32.324Z,3.18
2023-11-25T02:12:03.701Z,3.02
2023-11-25T02:14:31.757Z,2.91
2023-11-25T02:17:01.247Z,2.76
2023-11-25T02:19:29.952Z,2.72
2023-11-25T02:21:57.970Z,2.63
2023-11-25T02:24:28.919Z,2.54
2023-11-25T02:27:01.127Z,2.54
2023-11-25T02:29:30.100Z,2.54
2023-11-25T02:31:59.408Z,2.56
2023-11-25T02:34:28.082Z,2.64
2023-11-25T02:36:56.104Z,2.69
2023-11-25T02:39:24.204Z,2.77
2023-11-25T02:41:55.335Z,2.75
2023-11-25T02:44:23.630Z,2.68
2023-11-25T02:46:51.908Z,2.57
2023-11-25T02:49:22.521Z,2.50
2023-11-25T02:51:50.872Z,2.49
2023-11-25T02:54:18.847Z,2.42
2023-11-25T02:56:46.746Z,2.42
2023-11-25T02:59:19.033Z,2.59
2023-11-25T03:01:51.163Z,2.59
2023-11-25T03:04:20.589Z,2.54
2023-11-25T03:06:49.368Z,2.61
2023-11-25T03:09:18.488Z,2.53
2023-11-25T03:11:46.298Z,2.62
2023-11-25T03:14:16.504Z,2.63
2023-11-25T03:16:44.400Z,2.56
2023-11-25T03:19:12.400Z,2.53
2023-11-25T03:21:40.333Z,2.60
2023-11-25T03:24:09.395Z,2.77
2023-11-25T03:26:38.045Z,2.58
2023-11-25T03:29:05.866Z,2.73
2023-11-25T03:31:35.284Z,2.71
2023-11-25T03:34:03.064Z,2.77
2023-11-25T03:36:30.802Z,2.89
2023-11-25T03:38:58.453Z,3.03
2023-11-25T03:41:26.153Z,3.10
2023-11-25T03:43:53.810Z,3.11
2023-11-25T03:46:22.533Z,3.25
2023-11-25T03:48:52.042Z,3.25
2023-11-25T03:51:19.732Z,3.37
2023-11-25T03:53:47.516Z,3.35
2023-11-25T03:56:18.636Z,3.30
2023-11-25T03:58:46.208Z,3.11
2023-11-25T04:01:13.980Z,3.18
2023-11-25T04:03:41.834Z,3.24
2023-11-25T04:06:11.049Z,3.20
2023-11-25T04:08:38.958Z,3.13
2023-11-25T04:11:09.248Z,3.09
2023-11-25T04:13:37.504Z,3.05
2023-11-25T04:16:05.807Z,3.01
2023-11-25T04:18:34.581Z,2.93
2023-11-25T04:21:04.714Z,2.96
2023-11-25T04:23:34.007Z,2.98
2023-11-25T04:26:02.761Z,3.14
2023-11-25T04:28:34.443Z,3.12
2023-11-25T04:31:03.747Z,3.13
2023-11-25T04:33:31.450Z,3.27
2023-11-25T04:36:00.925Z,3.28
2023-11-25T04:38:28.721Z,3.32
2023-11-25T04:40:57.837Z,3.33
2023-11-25T04:43:26.665Z,3.26
2023-11-25T04:45:54.368Z,3.35
2023-11-25T04:48:22.226Z,3.39
2023-11-25T04:50:50.051Z,3.39
2023-11-25T04:53:17.986Z,3.32
2023-11-25T04:55:45.684Z,3.42
2023-11-25T04:58:14.858Z,3.62
2023-11-25T05:00:42.766Z,3.62
2023-11-25T05:03:10.785Z,3.70
2023-11-25T05:05:38.886Z,3.78
2023-11-25T05:08:08.247Z,3.86
2023-11-25T05:10:36.241Z,3.73
2023-11-25T05:13:05.680Z,3.64
2023-11-25T05:15:36.452Z,3.58
2023-11-25T05:18:04.178Z,3.69
2023-11-25T05:20:31.823Z,3.64
2023-11-25T05:23:00.525Z,3.63
2023-11-25T05:25:28.312Z,3.68
2023-11-25T05:27:56.146Z,3.70
2023-11-25T05:30:24.267Z,3.75
2023-11-25T05:32:53.448Z,3.71
2023-11-25T05:35:21.271Z,3.82
2023-11-25T05:37:49.485Z,3.87
2023-11-25T05:40:19.003Z,3.69
2023-11-25T05:42:54.082Z,3.66
2023-11-25T05:45:27.259Z,3.55
2023-11-25T05:47:57.418Z,3.40
2023-11-25T05:50:25.415Z,3.38
2023-11-25T05:52:53.323Z,3.34
2023-11-25T05:55:21.986Z,3.21
2023-11-25T05:57:51.779Z,3.16
2023-11-25T06:00:20.672Z,3.27
2023-11-25T06:02:48.397Z,3.20
2023-11-25T06:05:17.712Z,3.21
2023-11-25T06:07:45.525Z,3.10
2023-11-25T06:10:13.582Z,3.13
2023-11-25T06:12:41.574Z,3.08
2023-11-25T06:15:12.505Z,3.08
2023-11-25T06:17:40.277Z,3.11
2023-11-25T06:20:09.557Z,3.10
2023-11-25T06:22:39.418Z,3.02
2023-11-25T06:25:07.954Z,2.99
2023-11-25T06:27:36.766Z,3.03
2023-11-25T06:30:05.115Z,3.11
2023-11-25T06:32:34.319Z,3.06
2023-11-25T06:35:02.392Z,3.07
2023-11-25T06:37:30.208Z,3.06
2023-11-25T06:39:59.488Z,3.07
2023-11-25T06:42:27.161Z,2.98
2023-11-25T06:44:55.195Z,3.04
2023-11-25T06:47:23.374Z,3.04
2023-11-25T06:49:52.601Z,2.97
2023-11-25T06:52:20.584Z,3.07
2023-11-25T06:54:48.307Z,3.02
2023-11-25T06:57:17.628Z,3.07
2023-11-25T06:59:46.519Z,3.12
2023-11-25T07:02:14.614Z,3.15
2023-11-25T07:04:42.586Z,3.24
2023-11-25T07:07:10.477Z,3.38
2023-11-25T07:09:38.431Z,3.46
2023-11-25T07:12:07.021Z,3.57
2023-11-25T07:14:36.059Z,3.71
2023-11-25T07:17:04.524Z,3.80
2023-11-25T07:19:32.605Z,3.89
2023-11-25T07:22:00.480Z,3.93
2023-11-25T07:24:29.648Z,3.95
2023-11-25T07:27:03.163Z,4.12
2023-11-25T07:29:32.533Z,4.24
2023-11-25T07:32:02.257Z,4.27
2023-11-25T07:34:32.259Z,4.24
2023-11-25T07:37:00.689Z,4.27
2023-11-25T07:39:30.566Z,4.29
2023-11-25T07:41:59.345Z,4.41
2023-11-25T07:44:31.332Z,4.46
2023-11-25T07:46:59.210Z,4.43
2023-11-25T07:49:31.154Z,4.56
2023-11-25T07:51:59.007Z,4.80
2023-11-25T07:54:27.135Z,4.98
2023-11-25T07:56:54.756Z,5.07
2023-11-25T07:59:22.740Z,5.12
2023-11-25T08:01:58.946Z,5.33
2023-11-25T08:04:27.017Z,5.28
2023-11-25T08:06:56.119Z,5.41
2023-11-25T08:09:24.589Z,5.48
2023-11-25T08:11:52.417Z,5.70
2023-11-25T08:14:20.164Z,5.84
2023-11-25T08:16:49.241Z,5.84
2023-11-25T08:19:22.239Z,6.02
2023-11-25T08:21:53.651Z,6.11
2023-11-25T08:24:22.771Z,6.15
2023-11-25T08:26:53.697Z,5.93
2023-11-25T08:29:21.509Z,5.87
2023-11-25T08:31:49.739Z,5.65
2023-11-25T08:34:17.779Z,5.60
2023-11-25T08:36:54.101Z,5.58
2023-11-25T08:39:26.799Z,5.46
2023-11-25T08:41:56.156Z,5.31
2023-11-25T08:44:24.035Z,5.32
2023-11-25T08:46:52.798Z,5.34
2023-11-25T08:49:23.140Z,5.32
2023-11-25T08:51:52.388Z,5.30
2023-11-25T08:54:20.923Z,5.30
2023-11-25T08:56:52.344Z,5.20
2023-11-25T08:59:21.587Z,5.04
2023-11-25T09:01:53.495Z,5.00
2023-11-25T09:04:21.701Z,5.02
2023-11-25T09:06:49.588Z,5.01
2023-11-25T09:09:20.201Z,5.01
2023-11-25T09:11:49.076Z,5.17
2023-11-25T09:14:19.948Z,5.20
2023-11-25T09:16:48.161Z,5.22
2023-11-25T09:19:16.164Z,5.24
2023-11-25T09:21:47.415Z,5.22
2023-11-25T09:24:15.115Z,5.33
2023-11-25T09:26:43.027Z,5.32
2023-11-25T09:29:11.781Z,5.38
2023-11-25T09:31:40.818Z,5.34
2023-11-25T09:36:55.963Z,5.36
2023-11-25T09:39:25.814Z,5.80
2023-11-25T09:41:53.459Z,5.80
2023-11-25T09:44:22.421Z,5.95
2023-11-25T09:46:52.462Z,6.21
2023-11-25T09:49:20.516Z,6.36
2023-11-25T09:51:49.436Z,6.54
2023-11-25T09:54:23.796Z,6.51
2023-11-25T09:56:52.236Z,6.78
2023-11-25T09:59:23.768Z,6.72
2023-11-25T10:01:53.261Z,6.92
2023-11-25T10:04:22.374Z,6.78
2023-11-25T10:06:55.140Z,6.53
2023-11-25T10:09:23.680Z,6.29
2023-11-25T10:11:52.031Z,6.14
2023-11-25T10:14:19.895Z,6.07
2023-11-25T10:16:48.062Z,6.31
2023-11-25T10:19:21.921Z,6.25
2023-11-25T10:21:50.470Z,6.45
2023-11-25T10:24:23.992Z,6.71
2023-11-25T10:26:52.391Z,6.99
2023-11-25T10:29:21.085Z,7.35
2023-11-25T10:31:57.041Z,7.14
2023-11-25T10:34:27.723Z,7.10
2023-11-25T10:36:55.590Z,6.87
2023-11-25T10:39:24.953Z,6.79
2023-11-25T10:41:53.272Z,6.78
2023-11-25T10:44:22.298Z,6.74
2023-11-25T10:46:50.573Z,6.96
2023-11-25T10:49:21.505Z,7.10
2023-11-25T10:51:57.864Z,7.27
2023-11-25T10:54:31.723Z,7.25
2023-11-25T10:57:04.600Z,7.03
2023-11-25T10:59:35.255Z,6.71
2023-11-25T11:02:07.522Z,6.39
2023-11-25T11:04:42.742Z,6.31
2023-11-25T11:07:16.781Z,6.14
2023-11-25T11:09:47.809Z,6.21
2023-11-25T11:12:24.215Z,6.18
2023-11-25T11:15:01.558Z,6.15
2023-11-25T11:17:36.004Z,6.26
2023-11-25T11:20:06.897Z,6.48
2023-11-25T11:22:37.062Z,6.57
2023-11-25T11:25:16.712Z,6.52
2023-11-25T11:27:56.797Z,6.34
2023-11-25T11:30:42.627Z,6.24
2023-11-25T11:33:11.840Z,6.14
2023-11-25T11:35:40.575Z,6.02
2023-11-25T11:38:29.806Z,6.02
2023-11-25T11:41:02.874Z,6.07
2023-11-25T11:43:31.088Z,5.95
2023-11-25T11:46:00.076Z,6.08
2023-11-25T11:48:28.863Z,6.36
2023-11-25T11:50:56.682Z,6.44
2023-11-25T11:53:26.233Z,6.57
2023-11-25T11:55:56.841Z,6.98
2023-11-25T11:58:26.683Z,7.12
2023-11-25T12:01:09.514Z,7.07
2023-11-25T12:03:39.180Z,6.96
2023-11-25T12:06:07.991Z,6.86
2023-11-25T12:08:35.906Z,6.88
2023-11-25T12:11:06.609Z,6.68
2023-11-25T12:13:37.423Z,6.64
2023-11-25T12:16:08.222Z,6.72
2023-11-25T12:18:37.481Z,6.70
2023-11-25T12:21:06.907Z,6.79
2023-11-25T12:26:09.283Z,6.67
2023-11-25T12:28:43.275Z,6.58
2023-11-25T12:31:11.253Z,6.35
2023-11-25T12:33:40.748Z,6.37
2023-11-25T12:36:09.701Z,6.34
2023-11-25T12:38:38.229Z,6.54
2023-11-25T12:41:14.016Z,6.61
2023-11-25T12:44:06.805Z,6.66
2023-11-25T12:46:34.649Z,6.93
2023-11-25T12:49:22.007Z,6.71
2023-11-25T12:51:51.281Z,6.59
2023-11-25T12:54:21.235Z,6.55
2023-11-25T12:56:53.343Z,6.44
2023-11-25T12:59:23.464Z,6.27
2023-11-25T13:01:51.877Z,6.26
2023-11-25T13:04:19.995Z,6.29
2023-11-25T13:06:49.790Z,6.29
2023-11-25T13:09:21.068Z,6.48
2023-11-25T13:11:49.099Z,6.70
2023-11-25T13:14:18.214Z,6.74
2023-11-25T13:16:45.031Z,6.71
2023-11-25T13:19:13.714Z,6.81
2023-11-25T13:21:42.992Z,6.90
2023-11-25T13:24:10.833Z,6.89
2023-11-25T13:26:38.745Z,6.80
2023-11-25T13:29:06.801Z,6.75
2023-11-25T13:31:38.516Z,6.75
2023-11-25T13:34:07.276Z,6.71
2023-11-25T13:36:35.030Z,6.71
2023-11-25T13:39:05.509Z,6.77
2023-11-25T13:41:35.614Z,6.78
2023-11-25T13:44:03.302Z,6.67
2023-11-25T13:46:31.188Z,6.73
2023-11-25T13:49:00.556Z,6.67
2023-11-25T13:51:29.028Z,6.67
2023-11-25T13:53:58.222Z,6.58
2023-11-25T13:56:26.184Z,6.45
2023-11-25T13:58:55.312Z,6.46
2023-11-25T14:01:23.350Z,6.45
2023-11-25T14:03:52.120Z,6.48
2023-11-25T14:06:26.061Z,6.48
2023-11-25T14:08:54.931Z,6.59
2023-11-25T14:11:25.905Z,6.75
2023-11-25T14:13:57.648Z,6.87
2023-11-25T14:16:28.468Z,6.63
2023-11-25T14:18:56.361Z,6.60
2023-11-25T14:21:25.612Z,6.72
2023-11-25T14:23:54.536Z,6.60
2023-11-25T14:26:22.261Z,6.61
2023-11-25T14:28:50.149Z,6.64
2023-11-25T14:31:19.383Z,6.61
2023-11-25T14:33:47.224Z,6.78
2023-11-25T14:36:14.958Z,6.72
2023-11-25T14:38:44.058Z,6.64
2023-11-25T14:41:12.021Z,6.63
2023-11-25T14:43:39.965Z,6.55
2023-11-25T14:46:08.044Z,6.45
2023-11-25T14:48:35.842Z,6.37
2023-11-25T14:51:03.909Z,6.49
2023-11-25T14:53:32.189Z,6.42
2023-11-25T14:56:02.257Z,6.36
2023-11-25T14:58:30.158Z,6.34
2023-11-25T15:00:57.859Z,6.37
2023-11-25T15:03:28.485Z,6.43
2023-11-25T15:05:56.535Z,6.42
2023-11-25T15:08:24.421Z,6.38
2023-11-25T15:10:52.824Z,6.34
2023-11-25T15:13:22.051Z,6.30
2023-11-25T15:15:52.229Z,6.34
2023-11-25T15:18:20.445Z,6.31
2023-11-25T15:20:48.346Z,6.28
2023-11-25T15:23:16.026Z,6.19
2023-11-25T15:25:43.980Z,6.23
2023-11-25T15:28:16.662Z,6.18
2023-11-25T15:30:46.273Z,6.25
2023-11-25T15:33:13.919Z,6.19
2023-11-25T15:35:41.612Z,6.06
2023-11-25T15:38:09.341Z,6.07
2023-11-25T15:40:38.644Z,5.98
2023-11-25T15:43:06.499Z,5.93
2023-11-25T15:45:34.553Z,5.91
2023-11-25T15:48:03.878Z,5.85
2023-11-25T15:50:31.574Z,5.90
2023-11-25T15:52:59.261Z,5.90
2023-11-25T15:55:27.517Z,5.91
2023-11-25T15:57:55.359Z,5.99
2023-11-25T16:00:24.076Z,5.97
2023-11-25T16:02:53.221Z,5.92
2023-11-25T16:05:23.426Z,5.86
2023-11-25T16:07:51.242Z,5.91
2023-11-25T16:10:19.082Z,5.97
2023-11-25T16:12:46.746Z,5.96
2023-11-25T16:15:16.004Z,5.87
2023-11-25T16:17:44.015Z,5.91
2023-11-25T16:20:16.695Z,5.76
2023-11-25T16:22:45.925Z,5.57
2023-11-25T16:25:14.153Z,5.64
2023-11-25T16:27:42.100Z,5.71
2023-11-25T16:30:14.738Z,5.64
2023-11-25T16:32:42.835Z,5.71
2023-11-25T16:35:13.466Z,5.56
2023-11-25T16:37:41.596Z,5.57
2023-11-25T16:40:12.383Z,5.56
2023-11-25T16:42:40.200Z,5.58
2023-11-25T16:45:08.575Z,5.54
2023-11-25T16:47:36.584Z,5.63
2023-11-25T16:50:05.164Z,5.59
2023-11-25T16:52:33.188Z,5.54
2023-11-25T16:55:00.836Z,5.64
2023-11-25T16:57:30.243Z,5.52
2023-11-25T16:59:57.882Z,5.62
2023-11-25T17:02:27.555Z,5.68
2023-11-25T17:04:55.449Z,5.61
2023-11-25T17:07:23.479Z,5.63
2023-11-25T17:09:51.154Z,5.54
2023-11-25T17:12:18.847Z,5.63
2023-11-25T17:14:47.890Z,5.70
2023-11-25T17:17:15.879Z,5.79
2023-11-25T17:19:43.638Z,5.88
2023-11-25T17:22:11.333Z,5.90
2023-11-25T17:24:39.395Z,5.86
2023-11-25T17:27:07.640Z,5.98
2023-11-25T17:29:35.459Z,6.07
2023-11-25T17:32:05.644Z,6.02
2023-11-25T17:34:34.404Z,5.98
2023-11-25T17:37:02.456Z,6.05
2023-11-25T17:39:30.829Z,6.00
2023-11-25T17:41:58.532Z,5.95
2023-11-25T17:44:28.602Z,6.02
2023-11-25T17:46:56.297Z,6.09
2023-11-25T17:49:26.427Z,6.20
2023-11-25T17:51:54.418Z,6.27
2023-11-25T17:54:22.172Z,6.50
2023-11-25T17:56:53.602Z,6.35
2023-11-25T17:59:21.426Z,6.41
2023-11-25T18:01:50.456Z,6.41
2023-11-25T18:04:18.759Z,6.35
2023-11-25T18:06:47.767Z,6.37
2023-11-25T18:09:18.353Z,6.26
2023-11-25T18:11:46.025Z,6.17
2023-11-25T18:14:14.459Z,6.06
2023-11-25T18:16:42.375Z,6.06
2023-11-25T18:19:11.760Z,6.02
2023-11-25T18:21:40.156Z,6.02
2023-11-25T18:24:10.781Z,6.03
2023-11-25T18:26:38.726Z,6.05
2023-11-25T18:29:06.877Z,6.00
2023-11-25T18:31:35.268Z,5.97
2023-11-25T18:34:03.867Z,5.98
2023-11-25T18:36:31.905Z,6.05
2023-11-25T18:38:59.686Z,5.90
2023-11-25T18:41:28.953Z,5.91
2023-11-25T18:43:59.206Z,6.00
2023-11-25T18:46:27.255Z,5.90
2023-11-25T18:48:55.016Z,6.00
2023-11-25T18:51:22.688Z,5.95
2023-11-25T18:53:50.326Z,5.91
2023-11-25T18:56:17.918Z,5.97
2023-11-25T18:58:47.074Z,6.03
2023-11-25T19:01:16.275Z,6.03
2023-11-25T19:03:44.147Z,5.93
2023-11-25T19:06:12.228Z,5.95
2023-11-25T19:08:40.747Z,6.05
2023-11-25T19:11:09.360Z,5.94
2023-11-25T19:13:38.168Z,5.89
2023-11-25T19:16:09.755Z,5.81
2023-11-25T19:18:39.569Z,5.77
2023-11-25T19:21:07.785Z,5.86
2023-11-25T19:23:35.425Z,5.91
2023-11-25T19:26:03.650Z,5.91
2023-11-25T19:28:31.426Z,5.86
2023-11-25T19:30:59.140Z,5.89
2023-11-25T19:33:28.200Z,5.89
2023-11-25T19:35:55.968Z,5.82
2023-11-25T19:38:23.633Z,5.80
2023-11-25T19:40:51.407Z,5.74
2023-11-25T19:43:19.237Z,5.72
2023-11-25T19:45:46.920Z,5.83
2023-11-25T19:48:14.814Z,5.80
2023-11-25T19:50:45.597Z,5.76
2023-11-25T19:53:14.196Z,5.76
2023-11-25T19:55:41.964Z,5.66
2023-11-25T19:58:10.992Z,5.58
2023-11-25T20:00:48.964Z,5.61
2023-11-25T20:03:22.989Z,5.64
2023-11-25T20:05:52.605Z,5.65
2023-11-25T20:08:20.607Z,5.75
2023-11-25T20:10:49.228Z,5.60
2023-11-25T20:13:17.912Z,5.48
2023-11-25T20:15:45.782Z,5.37
2023-11-25T20:18:14.621Z,5.39
2023-11-25T20:20:42.830Z,5.40
2023-11-25T20:23:12.270Z,5.29
2023-11-25T20:25:39.996Z,5.06
2023-11-25T20:28:07.822Z,4.85
2023-11-25T20:30:35.581Z,4.78
2023-11-25T20:33:03.465Z,4.67
2023-11-25T20:35:31.277Z,4.68
2023-11-25T20:37:59.062Z,4.69
2023-11-25T20:40:28.503Z,4.68
2023-11-25T20:42:56.329Z,4.65
2023-11-25T20:45:25.007Z,4.53
2023-11-25T20:47:52.679Z,4.60
2023-11-25T20:50:20.492Z,4.46
2023-11-25T20:52:48.817Z,4.40
2023-11-25T20:55:16.633Z,4.38
2023-11-25T20:57:46.747Z,4.40
2023-11-25T21:00:15.599Z,4.40
2023-11-25T21:02:43.738Z,4.35
2023-11-25T21:05:12.355Z,4.37
2023-11-25T21:07:41.322Z,4.45
2023-11-25T21:10:09.882Z,4.37
2023-11-25T21:12:37.548Z,4.34
2023-11-25T21:15:07.761Z,4.22
2023-11-25T21:17:35.856Z,4.15
2023-11-25T21:20:25.625Z,4.24
2023-11-25T21:22:58.589Z,4.16
2023-11-25T21:25:51.994Z,4.15
2023-11-25T21:28:20.211Z,4.12
2023-11-25T21:31:07.347Z,4.09
2023-11-25T21:34:22.447Z,4.12
2023-11-25T21:37:26.114Z,4.18
2023-11-25T21:40:13.898Z,4.09
2023-11-25T21:42:54.160Z,4.06
2023-11-25T21:45:21.018Z,4.16
2023-11-25T21:47:52.299Z,4.06
2023-11-25T21:50:23.783Z,4.03
2023-11-25T21:53:15.607Z,3.94
2023-11-25T21:55:48.580Z,3.96
2023-11-25T21:58:38.846Z,4.00
2023-11-25T22:01:26.163Z,3.88
2023-11-25T22:04:06.036Z,3.90
2023-11-25T22:06:47.016Z,3.88
2023-11-25T22:09:48.620Z,3.77
2023-11-25T22:12:27.298Z,3.88
2023-11-25T22:14:59.477Z,3.88
2023-11-25T22:17:29.589Z,3.87
2023-11-25T22:20:23.768Z,3.79
2023-11-25T22:22:52.261Z,3.70
2023-11-25T22:25:27.856Z,3.77
2023-11-25T22:27:56.059Z,3.71
2023-11-25T22:30:25.476Z,3.71
2023-11-25T22:32:53.320Z,3.78
2023-11-25T22:35:22.565Z,3.67
2023-11-25T22:37:50.803Z,3.72
2023-11-25T22:40:18.676Z,3.69
2023-11-25T22:42:46.734Z,3.80
2023-11-25T22:45:14.871Z,3.74
2023-11-25T22:47:43.114Z,3.68
2023-11-25T22:50:11.817Z,3.60
2023-11-25T22:52:41.103Z,3.69
2023-11-25T22:55:09.178Z,3.70
2023-11-25T22:57:37.530Z,3.56
2023-11-25T23:00:16.427Z,3.64
2023-11-25T23:02:45.200Z,3.72
2023-11-25T23:05:13.706Z,3.72
2023-11-25T23:07:42.996Z,3.64
2023-11-25T23:10:10.956Z,3.70
2023-11-25T23:12:38.729Z,3.63
2023-11-25T23:15:07.346Z,3.56
2023-11-25T23:17:36.076Z,3.54
2023-11-25T23:20:08.326Z,3.62
2023-11-25T23:22:36.032Z,3.59
2023-11-25T23:25:05.776Z,3.67
2023-11-25T23:27:33.562Z,3.71
2023-11-25T23:30:01.465Z,3.69
2023-11-25T23:32:29.338Z,3.61
2023-11-25T23:34:58.355Z,3.53
2023-11-25T23:37:26.481Z,3.49
2023-11-25T23:39:54.306Z,3.45
2023-11-25T23:42:24.542Z,3.46
2023-11-25T23:44:52.311Z,3.41
2023-11-25T23:47:20.606Z,3.51
2023-11-25T23:49:48.995Z,3.40
2023-11-25T23:52:17.577Z,3.49
2023-11-25T23:54:45.392Z,3.41
2023-11-25T23:57:13.432Z,3.38
2023-11-25T23:59:42.803Z,3.37
